sensor_id;sensor_type;location;lat;lon;timestamp;P1;durP1;ratioP1;P2;durP2;ratioP2
78549;SDS011;68091;52.130;5.570;2023-03-31T00:01:41;27.75;;;4.20;;
78549;SDS011;68091;52.130;5.570;2023-03-31T00:04:07;21.70;;;4.53;;
78549;SDS011;68091;52.130;5.570;2023-03-31T00:06:36;16.98;;;4.60;;
78549;SDS011;68091;52.130;5.570;2023-03-31T00:09:06;17.92;;;3.80;;
78549;SDS011;68091;52.130;5.570;2023-03-31T00:11:34;14.60;;;4.03;;
78549;SDS011;68091;52.130;5.570;2023-03-31T00:14:01;26.98;;;4.25;;
78549;SDS011;68091;52.130;5.570;2023-03-31T00:16:28;16.67;;;3.95;;
78549;SDS011;68091;52.130;5.570;2023-03-31T00:18:53;19.48;;;3.95;;
78549;SDS011;68091;52.130;5.570;2023-03-31T00:21:20;21.40;;;4.25;;
78549;SDS011;68091;52.130;5.570;2023-03-31T00:23:58;20.80;;;5.05;;
78549;SDS011;68091;52.130;5.570;2023-03-31T00:26:26;16.00;;;4.13;;
78549;SDS011;68091;52.130;5.570;2023-03-31T00:28:52;18.48;;;3.95;;
78549;SDS011;68091;52.130;5.570;2023-03-31T00:31:18;18.30;;;4.38;;
78549;SDS011;68091;52.130;5.570;2023-03-31T00:33:44;20.25;;;5.00;;
78549;SDS011;68091;52.130;5.570;2023-03-31T00:36:11;19.00;;;4.22;;
78549;SDS011;68091;52.130;5.570;2023-03-31T00:38:41;14.38;;;3.78;;
78549;SDS011;68091;52.130;5.570;2023-03-31T00:41:10;20.33;;;4.47;;
78549;SDS011;68091;52.130;5.570;2023-03-31T00:43:36;16.17;;;4.05;;
78549;SDS011;68091;52.130;5.570;2023-03-31T00:46:09;12.90;;;3.58;;
78549;SDS011;68091;52.130;5.570;2023-03-31T00:48:41;21.50;;;4.22;;
78549;SDS011;68091;52.130;5.570;2023-03-31T00:51:15;18.60;;;4.00;;
78549;SDS011;68091;52.130;5.570;2023-03-31T00:53:42;14.60;;;4.20;;
78549;SDS011;68091;52.130;5.570;2023-03-31T00:56:13;19.45;;;3.70;;
78549;SDS011;68091;52.130;5.570;2023-03-31T00:58:41;21.85;;;5.18;;
78549;SDS011;68091;52.130;5.570;2023-03-31T01:01:09;17.10;;;4.00;;
78549;SDS011;68091;52.130;5.570;2023-03-31T01:03:41;15.73;;;3.70;;
78549;SDS011;68091;52.130;5.570;2023-03-31T01:06:10;15.40;;;4.00;;
78549;SDS011;68091;52.130;5.570;2023-03-31T01:08:39;21.02;;;3.83;;
78549;SDS011;68091;52.130;5.570;2023-03-31T01:11:08;16.88;;;4.32;;
78549;SDS011;68091;52.130;5.570;2023-03-31T01:13:36;13.98;;;4.10;;
78549;SDS011;68091;52.130;5.570;2023-03-31T01:16:04;12.32;;;3.97;;
78549;SDS011;68091;52.130;5.570;2023-03-31T01:18:30;15.10;;;4.03;;
78549;SDS011;68091;52.130;5.570;2023-03-31T01:21:15;20.13;;;4.63;;
78549;SDS011;68091;52.130;5.570;2023-03-31T01:23:56;22.15;;;4.68;;
78549;SDS011;68091;52.130;5.570;2023-03-31T01:32:41;15.60;;;4.45;;
78549;SDS011;68091;52.130;5.570;2023-03-31T01:41:33;17.05;;;4.50;;
78549;SDS011;68091;52.130;5.570;2023-03-31T01:46:46;19.42;;;4.88;;
78549;SDS011;68091;52.130;5.570;2023-03-31T01:49:38;17.10;;;4.60;;
78549;SDS011;68091;52.130;5.570;2023-03-31T01:52:18;19.70;;;5.15;;
78549;SDS011;68091;52.130;5.570;2023-03-31T02:01:00;17.08;;;4.18;;
78549;SDS011;68091;52.130;5.570;2023-03-31T02:03:53;16.00;;;4.28;;
78549;SDS011;68091;52.130;5.570;2023-03-31T02:06:24;12.68;;;5.10;;
78549;SDS011;68091;52.130;5.570;2023-03-31T02:08:56;15.18;;;4.38;;
78549;SDS011;68091;52.130;5.570;2023-03-31T02:11:28;24.65;;;5.35;;
78549;SDS011;68091;52.130;5.570;2023-03-31T02:13:56;20.10;;;4.10;;
78549;SDS011;68091;52.130;5.570;2023-03-31T02:16:26;19.83;;;4.35;;
78549;SDS011;68091;52.130;5.570;2023-03-31T02:18:56;24.35;;;4.70;;
78549;SDS011;68091;52.130;5.570;2023-03-31T02:21:33;17.92;;;4.07;;
78549;SDS011;68091;52.130;5.570;2023-03-31T02:24:03;15.90;;;4.22;;
78549;SDS011;68091;52.130;5.570;2023-03-31T02:26:35;18.95;;;4.10;;
78549;SDS011;68091;52.130;5.570;2023-03-31T02:29:05;16.08;;;3.70;;
78549;SDS011;68091;52.130;5.570;2023-03-31T02:32:33;22.48;;;3.72;;
78549;SDS011;68091;52.130;5.570;2023-03-31T02:34:40;17.33;;;4.07;;
78549;SDS011;68091;52.130;5.570;2023-03-31T02:37:06;17.10;;;4.93;;
78549;SDS011;68091;52.130;5.570;2023-03-31T02:39:34;25.75;;;4.80;;
78549;SDS011;68091;52.130;5.570;2023-03-31T02:42:05;14.43;;;3.55;;
78549;SDS011;68091;52.130;5.570;2023-03-31T02:44:34;16.15;;;4.38;;
78549;SDS011;68091;52.130;5.570;2023-03-31T02:47:01;23.10;;;3.70;;
78549;SDS011;68091;52.130;5.570;2023-03-31T02:49:28;19.48;;;4.18;;
78549;SDS011;68091;52.130;5.570;2023-03-31T02:51:58;19.92;;;4.22;;
78549;SDS011;68091;52.130;5.570;2023-03-31T02:57:43;15.77;;;4.45;;
78549;SDS011;68091;52.130;5.570;2023-03-31T03:00:27;17.75;;;4.28;;
78549;SDS011;68091;52.130;5.570;2023-03-31T03:06:00;20.30;;;3.50;;
78549;SDS011;68091;52.130;5.570;2023-03-31T03:14:17;15.65;;;3.55;;
78549;SDS011;68091;52.130;5.570;2023-03-31T03:17:05;13.20;;;3.20;;
78549;SDS011;68091;52.130;5.570;2023-03-31T03:19:34;13.82;;;3.22;;
78549;SDS011;68091;52.130;5.570;2023-03-31T03:22:00;14.60;;;3.25;;
78549;SDS011;68091;52.130;5.570;2023-03-31T03:24:26;13.35;;;2.75;;
78549;SDS011;68091;52.130;5.570;2023-03-31T03:26:53;12.45;;;2.92;;
78549;SDS011;68091;52.130;5.570;2023-03-31T03:29:20;13.90;;;3.17;;
78549;SDS011;68091;52.130;5.570;2023-03-31T03:31:46;15.52;;;2.97;;
78549;SDS011;68091;52.130;5.570;2023-03-31T03:34:12;16.70;;;3.35;;
78549;SDS011;68091;52.130;5.570;2023-03-31T03:36:38;18.52;;;3.92;;
78549;SDS011;68091;52.130;5.570;2023-03-31T03:39:05;11.55;;;3.50;;
78549;SDS011;68091;52.130;5.570;2023-03-31T03:41:31;16.92;;;4.03;;
78549;SDS011;68091;52.130;5.570;2023-03-31T03:43:58;15.18;;;4.38;;
78549;SDS011;68091;52.130;5.570;2023-03-31T03:46:24;18.67;;;4.70;;
78549;SDS011;68091;52.130;5.570;2023-03-31T03:48:50;24.15;;;5.20;;
78549;SDS011;68091;52.130;5.570;2023-03-31T03:51:16;15.85;;;3.83;;
78549;SDS011;68091;52.130;5.570;2023-03-31T03:53:42;20.98;;;4.40;;
78549;SDS011;68091;52.130;5.570;2023-03-31T03:56:08;21.85;;;4.25;;
78549;SDS011;68091;52.130;5.570;2023-03-31T03:58:34;15.65;;;3.65;;
78549;SDS011;68091;52.130;5.570;2023-03-31T04:01:00;17.25;;;3.53;;
78549;SDS011;68091;52.130;5.570;2023-03-31T04:03:26;14.27;;;3.28;;
78549;SDS011;68091;52.130;5.570;2023-03-31T04:05:52;17.45;;;3.53;;
78549;SDS011;68091;52.130;5.570;2023-03-31T04:08:17;14.32;;;3.17;;
78549;SDS011;68091;52.130;5.570;2023-03-31T04:10:47;17.90;;;2.83;;
78549;SDS011;68091;52.130;5.570;2023-03-31T04:13:14;10.70;;;2.55;;
78549;SDS011;68091;52.130;5.570;2023-03-31T04:15:40;8.32;;;2.42;;
78549;SDS011;68091;52.130;5.570;2023-03-31T04:18:06;15.70;;;2.50;;
78549;SDS011;68091;52.130;5.570;2023-03-31T04:20:35;13.10;;;2.50;;
78549;SDS011;68091;52.130;5.570;2023-03-31T04:23:02;8.63;;;2.53;;
78549;SDS011;68091;52.130;5.570;2023-03-31T04:25:30;11.23;;;3.03;;
78549;SDS011;68091;52.130;5.570;2023-03-31T04:27:56;12.68;;;3.30;;
78549;SDS011;68091;52.130;5.570;2023-03-31T04:30:22;12.05;;;3.22;;
78549;SDS011;68091;52.130;5.570;2023-03-31T04:32:55;21.10;;;7.85;;
78549;SDS011;68091;52.130;5.570;2023-03-31T04:35:26;15.23;;;3.60;;
78549;SDS011;68091;52.130;5.570;2023-03-31T04:38:06;17.75;;;3.90;;
78549;SDS011;68091;52.130;5.570;2023-03-31T04:40:33;18.50;;;4.28;;
78549;SDS011;68091;52.130;5.570;2023-03-31T04:42:59;23.77;;;3.92;;
78549;SDS011;68091;52.130;5.570;2023-03-31T04:45:25;13.98;;;3.53;;
78549;SDS011;68091;52.130;5.570;2023-03-31T04:47:51;18.30;;;4.72;;
78549;SDS011;68091;52.130;5.570;2023-03-31T04:50:17;20.17;;;4.45;;
78549;SDS011;68091;52.130;5.570;2023-03-31T04:52:43;19.63;;;6.28;;
78549;SDS011;68091;52.130;5.570;2023-03-31T04:55:08;21.33;;;5.70;;
78549;SDS011;68091;52.130;5.570;2023-03-31T04:57:35;21.10;;;6.20;;
78549;SDS011;68091;52.130;5.570;2023-03-31T05:00:01;16.40;;;6.15;;
78549;SDS011;68091;52.130;5.570;2023-03-31T05:02:34;18.92;;;6.07;;
78549;SDS011;68091;52.130;5.570;2023-03-31T05:04:59;19.20;;;6.10;;
78549;SDS011;68091;52.130;5.570;2023-03-31T05:07:25;17.02;;;5.43;;
78549;SDS011;68091;52.130;5.570;2023-03-31T05:09:51;25.95;;;6.00;;
78549;SDS011;68091;52.130;5.570;2023-03-31T05:12:17;25.90;;;5.95;;
78549;SDS011;68091;52.130;5.570;2023-03-31T05:14:43;12.93;;;4.68;;
78549;SDS011;68091;52.130;5.570;2023-03-31T05:17:09;19.90;;;5.60;;
78549;SDS011;68091;52.130;5.570;2023-03-31T05:19:35;16.38;;;5.20;;
78549;SDS011;68091;52.130;5.570;2023-03-31T05:22:01;17.50;;;4.63;;
78549;SDS011;68091;52.130;5.570;2023-03-31T05:24:27;13.38;;;4.55;;
78549;SDS011;68091;52.130;5.570;2023-03-31T05:26:54;16.35;;;4.50;;
78549;SDS011;68091;52.130;5.570;2023-03-31T05:29:21;14.30;;;3.92;;
78549;SDS011;68091;52.130;5.570;2023-03-31T05:31:48;17.98;;;4.32;;
78549;SDS011;68091;52.130;5.570;2023-03-31T05:34:18;13.25;;;4.43;;
78549;SDS011;68091;52.130;5.570;2023-03-31T05:36:44;13.73;;;3.53;;
78549;SDS011;68091;52.130;5.570;2023-03-31T05:39:12;15.98;;;4.15;;
78549;SDS011;68091;52.130;5.570;2023-03-31T05:41:38;12.50;;;3.00;;
78549;SDS011;68091;52.130;5.570;2023-03-31T05:44:05;20.38;;;4.47;;
78549;SDS011;68091;52.130;5.570;2023-03-31T05:46:31;20.48;;;3.70;;
78549;SDS011;68091;52.130;5.570;2023-03-31T05:48:56;13.77;;;3.70;;
78549;SDS011;68091;52.130;5.570;2023-03-31T05:51:23;13.55;;;3.47;;
78549;SDS011;68091;52.130;5.570;2023-03-31T05:53:49;15.30;;;3.47;;
78549;SDS011;68091;52.130;5.570;2023-03-31T05:56:14;14.52;;;3.60;;
78549;SDS011;68091;52.130;5.570;2023-03-31T05:58:40;13.23;;;3.63;;
78549;SDS011;68091;52.130;5.570;2023-03-31T06:01:07;11.23;;;3.38;;
78549;SDS011;68091;52.130;5.570;2023-03-31T06:03:38;15.43;;;3.67;;
78549;SDS011;68091;52.130;5.570;2023-03-31T06:06:05;20.95;;;4.03;;
78549;SDS011;68091;52.130;5.570;2023-03-31T06:08:33;18.92;;;4.22;;
78549;SDS011;68091;52.130;5.570;2023-03-31T06:11:02;15.85;;;3.72;;
78549;SDS011;68091;52.130;5.570;2023-03-31T06:13:36;14.43;;;3.55;;
78549;SDS011;68091;52.130;5.570;2023-03-31T06:16:03;16.00;;;3.10;;
78549;SDS011;68091;52.130;5.570;2023-03-31T06:18:33;12.57;;;3.28;;
78549;SDS011;68091;52.130;5.570;2023-03-31T06:21:00;14.73;;;2.90;;
78549;SDS011;68091;52.130;5.570;2023-03-31T06:23:26;14.82;;;2.80;;
78549;SDS011;68091;52.130;5.570;2023-03-31T06:25:52;10.07;;;2.10;;
78549;SDS011;68091;52.130;5.570;2023-03-31T06:28:18;11.68;;;2.53;;
78549;SDS011;68091;52.130;5.570;2023-03-31T06:30:45;11.57;;;2.42;;
78549;SDS011;68091;52.130;5.570;2023-03-31T06:33:11;11.00;;;2.35;;
78549;SDS011;68091;52.130;5.570;2023-03-31T06:35:38;14.93;;;3.22;;
78549;SDS011;68091;52.130;5.570;2023-03-31T06:38:05;10.75;;;2.35;;
78549;SDS011;68091;52.130;5.570;2023-03-31T06:40:31;14.05;;;2.78;;
78549;SDS011;68091;52.130;5.570;2023-03-31T06:42:58;11.73;;;2.47;;
78549;SDS011;68091;52.130;5.570;2023-03-31T06:45:24;15.00;;;2.60;;
78549;SDS011;68091;52.130;5.570;2023-03-31T06:47:50;6.88;;;1.77;;
78549;SDS011;68091;52.130;5.570;2023-03-31T06:50:16;12.35;;;2.28;;
78549;SDS011;68091;52.130;5.570;2023-03-31T06:52:42;9.15;;;2.30;;
78549;SDS011;68091;52.130;5.570;2023-03-31T06:55:08;7.22;;;1.77;;
78549;SDS011;68091;52.130;5.570;2023-03-31T06:57:37;8.65;;;2.10;;
78549;SDS011;68091;52.130;5.570;2023-03-31T07:00:03;6.28;;;1.92;;
78549;SDS011;68091;52.130;5.570;2023-03-31T07:02:29;10.57;;;2.13;;
78549;SDS011;68091;52.130;5.570;2023-03-31T07:04:58;10.77;;;2.30;;
78549;SDS011;68091;52.130;5.570;2023-03-31T07:07:24;9.07;;;2.00;;
78549;SDS011;68091;52.130;5.570;2023-03-31T07:09:50;10.80;;;2.17;;
78549;SDS011;68091;52.130;5.570;2023-03-31T07:12:16;4.82;;;1.48;;
78549;SDS011;68091;52.130;5.570;2023-03-31T07:14:42;7.60;;;2.10;;
78549;SDS011;68091;52.130;5.570;2023-03-31T07:17:07;11.35;;;2.00;;
78549;SDS011;68091;52.130;5.570;2023-03-31T07:19:33;8.88;;;1.85;;
78549;SDS011;68091;52.130;5.570;2023-03-31T07:22:02;14.30;;;2.88;;
78549;SDS011;68091;52.130;5.570;2023-03-31T07:24:28;12.05;;;3.80;;
78549;SDS011;68091;52.130;5.570;2023-03-31T07:26:54;9.30;;;1.83;;
78549;SDS011;68091;52.130;5.570;2023-03-31T07:29:20;8.77;;;2.03;;
78549;SDS011;68091;52.130;5.570;2023-03-31T07:31:46;9.65;;;2.28;;
78549;SDS011;68091;52.130;5.570;2023-03-31T07:34:16;9.02;;;1.75;;
78549;SDS011;68091;52.130;5.570;2023-03-31T07:36:41;7.63;;;1.48;;
78549;SDS011;68091;52.130;5.570;2023-03-31T07:39:07;6.32;;;1.60;;
78549;SDS011;68091;52.130;5.570;2023-03-31T07:41:33;7.10;;;1.75;;
78549;SDS011;68091;52.130;5.570;2023-03-31T07:44:00;6.95;;;1.40;;
78549;SDS011;68091;52.130;5.570;2023-03-31T07:46:26;8.80;;;1.90;;
78549;SDS011;68091;52.130;5.570;2023-03-31T07:48:55;10.00;;;2.75;;
78549;SDS011;68091;52.130;5.570;2023-03-31T07:51:25;8.00;;;2.42;;
78549;SDS011;68091;52.130;5.570;2023-03-31T07:53:51;5.50;;;1.60;;
78549;SDS011;68091;52.130;5.570;2023-03-31T07:56:18;9.68;;;2.55;;
78549;SDS011;68091;52.130;5.570;2023-03-31T07:58:46;9.20;;;1.88;;
78549;SDS011;68091;52.130;5.570;2023-03-31T08:01:15;11.82;;;2.95;;
78549;SDS011;68091;52.130;5.570;2023-03-31T08:03:43;9.10;;;2.00;;
78549;SDS011;68091;52.130;5.570;2023-03-31T08:06:10;9.07;;;1.73;;
78549;SDS011;68091;52.130;5.570;2023-03-31T08:08:41;9.35;;;2.33;;
78549;SDS011;68091;52.130;5.570;2023-03-31T08:11:07;7.80;;;2.10;;
78549;SDS011;68091;52.130;5.570;2023-03-31T08:13:34;11.60;;;2.17;;
78549;SDS011;68091;52.130;5.570;2023-03-31T08:16:00;10.65;;;2.35;;
78549;SDS011;68091;52.130;5.570;2023-03-31T08:18:26;9.18;;;2.10;;
78549;SDS011;68091;52.130;5.570;2023-03-31T08:20:52;10.18;;;2.35;;
78549;SDS011;68091;52.130;5.570;2023-03-31T08:23:18;9.80;;;2.40;;
78549;SDS011;68091;52.130;5.570;2023-03-31T08:25:43;12.10;;;2.05;;
78549;SDS011;68091;52.130;5.570;2023-03-31T08:28:09;9.80;;;2.53;;
78549;SDS011;68091;52.130;5.570;2023-03-31T08:30:38;11.90;;;2.45;;
78549;SDS011;68091;52.130;5.570;2023-03-31T08:33:04;9.25;;;2.65;;
78549;SDS011;68091;52.130;5.570;2023-03-31T08:35:35;12.30;;;2.75;;
78549;SDS011;68091;52.130;5.570;2023-03-31T08:38:00;16.73;;;3.05;;
78549;SDS011;68091;52.130;5.570;2023-03-31T08:40:27;8.10;;;2.20;;
78549;SDS011;68091;52.130;5.570;2023-03-31T08:45:50;10.05;;;3.00;;
78549;SDS011;68091;52.130;5.570;2023-03-31T08:48:20;13.13;;;3.17;;
78549;SDS011;68091;52.130;5.570;2023-03-31T08:50:59;12.60;;;2.70;;
78549;SDS011;68091;52.130;5.570;2023-03-31T08:53:34;11.25;;;3.03;;
78549;SDS011;68091;52.130;5.570;2023-03-31T08:56:06;14.52;;;3.38;;
78549;SDS011;68091;52.130;5.570;2023-03-31T08:58:43;14.55;;;3.03;;
78549;SDS011;68091;52.130;5.570;2023-03-31T09:06:49;12.93;;;3.20;;
78549;SDS011;68091;52.130;5.570;2023-03-31T09:12:31;16.30;;;3.60;;
78549;SDS011;68091;52.130;5.570;2023-03-31T09:15:09;24.20;;;4.20;;
78549;SDS011;68091;52.130;5.570;2023-03-31T09:17:48;22.05;;;4.28;;
78549;SDS011;68091;52.130;5.570;2023-03-31T09:20:19;21.05;;;4.38;;
78549;SDS011;68091;52.130;5.570;2023-03-31T09:22:52;25.02;;;5.38;;
78549;SDS011;68091;52.130;5.570;2023-03-31T09:25:35;27.42;;;4.70;;
78549;SDS011;68091;52.130;5.570;2023-03-31T09:28:12;24.70;;;4.72;;
78549;SDS011;68091;52.130;5.570;2023-03-31T09:30:55;24.05;;;4.32;;
78549;SDS011;68091;52.130;5.570;2023-03-31T09:33:28;26.65;;;5.70;;
78549;SDS011;68091;52.130;5.570;2023-03-31T09:36:00;21.67;;;4.43;;
78549;SDS011;68091;52.130;5.570;2023-03-31T09:38:32;29.55;;;5.75;;
78549;SDS011;68091;52.130;5.570;2023-03-31T09:40:59;21.77;;;4.45;;
78549;SDS011;68091;52.130;5.570;2023-03-31T09:43:30;26.33;;;4.07;;
78549;SDS011;68091;52.130;5.570;2023-03-31T09:45:59;19.40;;;4.45;;
78549;SDS011;68091;52.130;5.570;2023-03-31T09:48:26;25.45;;;4.25;;
78549;SDS011;68091;52.130;5.570;2023-03-31T09:50:57;26.13;;;4.30;;
78549;SDS011;68091;52.130;5.570;2023-03-31T09:53:51;29.52;;;5.03;;
78549;SDS011;68091;52.130;5.570;2023-03-31T09:59:10;17.50;;;3.72;;
78549;SDS011;68091;52.130;5.570;2023-03-31T10:01:42;31.65;;;4.72;;
78549;SDS011;68091;52.130;5.570;2023-03-31T10:04:45;22.00;;;4.95;;
78549;SDS011;68091;52.130;5.570;2023-03-31T10:07:10;21.52;;;4.10;;
78549;SDS011;68091;52.130;5.570;2023-03-31T10:09:36;20.20;;;4.80;;
78549;SDS011;68091;52.130;5.570;2023-03-31T10:12:04;21.27;;;4.50;;
78549;SDS011;68091;52.130;5.570;2023-03-31T10:14:34;22.98;;;4.07;;
78549;SDS011;68091;52.130;5.570;2023-03-31T10:17:12;17.10;;;3.95;;
78549;SDS011;68091;52.130;5.570;2023-03-31T10:19:46;20.40;;;3.95;;
78549;SDS011;68091;52.130;5.570;2023-03-31T10:24:45;23.17;;;4.78;;
78549;SDS011;68091;52.130;5.570;2023-03-31T10:27:21;20.92;;;3.85;;
78549;SDS011;68091;52.130;5.570;2023-03-31T10:30:03;19.88;;;4.20;;
78549;SDS011;68091;52.130;5.570;2023-03-31T10:32:33;28.27;;;5.10;;
78549;SDS011;68091;52.130;5.570;2023-03-31T10:35:07;23.25;;;5.20;;
78549;SDS011;68091;52.130;5.570;2023-03-31T10:38:02;20.77;;;4.57;;
78549;SDS011;68091;52.130;5.570;2023-03-31T10:40:31;18.75;;;4.28;;
78549;SDS011;68091;52.130;5.570;2023-03-31T10:45:35;21.52;;;3.80;;
78549;SDS011;68091;52.130;5.570;2023-03-31T10:48:26;22.95;;;4.30;;
78549;SDS011;68091;52.130;5.570;2023-03-31T10:50:57;20.17;;;4.20;;
78549;SDS011;68091;52.130;5.570;2023-03-31T10:53:25;18.30;;;3.55;;
78549;SDS011;68091;52.130;5.570;2023-03-31T10:56:05;21.33;;;3.97;;
78549;SDS011;68091;52.130;5.570;2023-03-31T10:58:46;21.73;;;4.10;;
78549;SDS011;68091;52.130;5.570;2023-03-31T11:07:03;17.25;;;3.85;;
78549;SDS011;68091;52.130;5.570;2023-03-31T11:09:40;17.05;;;3.58;;
78549;SDS011;68091;52.130;5.570;2023-03-31T11:15:21;19.48;;;4.07;;
78549;SDS011;68091;52.130;5.570;2023-03-31T11:20:35;17.17;;;3.40;;
78549;SDS011;68091;52.130;5.570;2023-03-31T11:32:39;14.27;;;3.05;;
78549;SDS011;68091;52.130;5.570;2023-03-31T11:40:58;17.08;;;3.67;;
78549;SDS011;68091;52.130;5.570;2023-03-31T11:46:04;22.83;;;4.47;;
78549;SDS011;68091;52.130;5.570;2023-03-31T11:48:52;14.70;;;3.67;;
78549;SDS011;68091;52.130;5.570;2023-03-31T11:57:01;25.05;;;3.88;;
78549;SDS011;68091;52.130;5.570;2023-03-31T11:59:38;19.30;;;3.40;;
78549;SDS011;68091;52.130;5.570;2023-03-31T12:02:14;21.25;;;3.58;;
78549;SDS011;68091;52.130;5.570;2023-03-31T12:04:47;19.40;;;3.45;;
78549;SDS011;68091;52.130;5.570;2023-03-31T12:07:40;19.67;;;4.07;;
78549;SDS011;68091;52.130;5.570;2023-03-31T12:10:20;18.20;;;3.70;;
78549;SDS011;68091;52.130;5.570;2023-03-31T12:15:39;17.10;;;4.15;;
78549;SDS011;68091;52.130;5.570;2023-03-31T12:18:10;22.73;;;3.80;;
78549;SDS011;68091;52.130;5.570;2023-03-31T12:21:05;19.02;;;4.30;;
78549;SDS011;68091;52.130;5.570;2023-03-31T12:23:37;17.05;;;3.97;;
78549;SDS011;68091;52.130;5.570;2023-03-31T12:28:56;21.55;;;3.45;;
78549;SDS011;68091;52.130;5.570;2023-03-31T12:31:28;21.67;;;3.72;;
78549;SDS011;68091;52.130;5.570;2023-03-31T12:34:01;20.35;;;3.58;;
78549;SDS011;68091;52.130;5.570;2023-03-31T12:48:16;22.55;;;4.28;;
78549;SDS011;68091;52.130;5.570;2023-03-31T12:55:57;21.02;;;3.55;;
78549;SDS011;68091;52.130;5.570;2023-03-31T13:06:02;23.50;;;3.70;;
78549;SDS011;68091;52.130;5.570;2023-03-31T13:08:51;23.55;;;4.10;;
78549;SDS011;68091;52.130;5.570;2023-03-31T13:16:32;25.88;;;4.00;;
78549;SDS011;68091;52.130;5.570;2023-03-31T13:18:59;19.40;;;4.00;;
78549;SDS011;68091;52.130;5.570;2023-03-31T13:21:25;21.40;;;3.60;;
78549;SDS011;68091;52.130;5.570;2023-03-31T13:23:51;18.50;;;3.60;;
78549;SDS011;68091;52.130;5.570;2023-03-31T13:34:38;13.20;;;3.35;;
78549;SDS011;68091;52.130;5.570;2023-03-31T13:37:17;19.83;;;3.58;;
78549;SDS011;68091;52.130;5.570;2023-03-31T13:45:25;13.80;;;2.83;;
78549;SDS011;68091;52.130;5.570;2023-03-31T13:56:32;13.23;;;2.80;;
78549;SDS011;68091;52.130;5.570;2023-03-31T14:05:19;16.08;;;3.05;;
78549;SDS011;68091;52.130;5.570;2023-03-31T14:07:49;12.25;;;2.47;;
78549;SDS011;68091;52.130;5.570;2023-03-31T14:10:27;20.77;;;2.88;;
78549;SDS011;68091;52.130;5.570;2023-03-31T14:13:04;17.77;;;2.97;;
78549;SDS011;68091;52.130;5.570;2023-03-31T14:15:32;10.18;;;2.35;;
78549;SDS011;68091;52.130;5.570;2023-03-31T14:18:00;20.33;;;2.88;;
78549;SDS011;68091;52.130;5.570;2023-03-31T14:20:34;13.88;;;2.25;;
78549;SDS011;68091;52.130;5.570;2023-03-31T14:23:13;10.73;;;2.30;;
78549;SDS011;68091;52.130;5.570;2023-03-31T14:28:55;11.23;;;2.75;;
78549;SDS011;68091;52.130;5.570;2023-03-31T14:37:17;11.60;;;2.70;;
78549;SDS011;68091;52.130;5.570;2023-03-31T14:39:51;10.65;;;2.03;;
78549;SDS011;68091;52.130;5.570;2023-03-31T14:42:21;10.98;;;2.08;;
78549;SDS011;68091;52.130;5.570;2023-03-31T14:44:56;11.32;;;2.53;;
78549;SDS011;68091;52.130;5.570;2023-03-31T14:47:26;8.52;;;2.53;;
78549;SDS011;68091;52.130;5.570;2023-03-31T14:50:14;12.32;;;2.40;;
78549;SDS011;68091;52.130;5.570;2023-03-31T14:52:48;9.35;;;2.10;;
78549;SDS011;68091;52.130;5.570;2023-03-31T14:55:23;13.38;;;2.05;;
78549;SDS011;68091;52.130;5.570;2023-03-31T14:57:52;9.63;;;1.60;;
78549;SDS011;68091;52.130;5.570;2023-03-31T15:00:25;8.77;;;1.98;;
78549;SDS011;68091;52.130;5.570;2023-03-31T15:02:58;10.85;;;2.08;;
78549;SDS011;68091;52.130;5.570;2023-03-31T15:05:33;10.48;;;2.00;;
78549;SDS011;68091;52.130;5.570;2023-03-31T15:08:05;11.32;;;2.53;;
78549;SDS011;68091;52.130;5.570;2023-03-31T15:10:39;10.00;;;2.10;;
78549;SDS011;68091;52.130;5.570;2023-03-31T15:13:18;8.80;;;1.85;;
78549;SDS011;68091;52.130;5.570;2023-03-31T15:15:57;5.72;;;1.50;;
78549;SDS011;68091;52.130;5.570;2023-03-31T15:18:24;10.85;;;3.30;;
78549;SDS011;68091;52.130;5.570;2023-03-31T15:20:51;9.68;;;2.95;;
78549;SDS011;68091;52.130;5.570;2023-03-31T15:23:26;4.85;;;1.63;;
78549;SDS011;68091;52.130;5.570;2023-03-31T15:26:02;9.60;;;2.10;;
78549;SDS011;68091;52.130;5.570;2023-03-31T15:28:37;7.22;;;1.50;;
78549;SDS011;68091;52.130;5.570;2023-03-31T15:31:12;5.57;;;1.80;;
78549;SDS011;68091;52.130;5.570;2023-03-31T15:33:41;8.20;;;1.70;;
78549;SDS011;68091;52.130;5.570;2023-03-31T15:36:07;6.68;;;1.50;;
78549;SDS011;68091;52.130;5.570;2023-03-31T15:38:35;5.47;;;1.60;;
78549;SDS011;68091;52.130;5.570;2023-03-31T15:41:01;5.38;;;1.55;;
78549;SDS011;68091;52.130;5.570;2023-03-31T15:43:31;7.93;;;2.00;;
78549;SDS011;68091;52.130;5.570;2023-03-31T15:46:11;8.27;;;1.70;;
78549;SDS011;68091;52.130;5.570;2023-03-31T15:48:50;6.40;;;1.70;;
78549;SDS011;68091;52.130;5.570;2023-03-31T15:53:58;6.22;;;1.70;;
78549;SDS011;68091;52.130;5.570;2023-03-31T15:58:58;5.22;;;1.77;;
78549;SDS011;68091;52.130;5.570;2023-03-31T16:01:30;4.28;;;1.52;;
78549;SDS011;68091;52.130;5.570;2023-03-31T16:04:05;9.55;;;2.20;;
78549;SDS011;68091;52.130;5.570;2023-03-31T16:06:44;9.80;;;2.00;;
78549;SDS011;68091;52.130;5.570;2023-03-31T16:09:27;6.65;;;2.20;;
78549;SDS011;68091;52.130;5.570;2023-03-31T16:12:18;11.10;;;3.00;;
78549;SDS011;68091;52.130;5.570;2023-03-31T16:14:59;5.60;;;1.83;;
78549;SDS011;68091;52.130;5.570;2023-03-31T16:20:03;7.07;;;1.95;;
78549;SDS011;68091;52.130;5.570;2023-03-31T16:23:20;8.75;;;1.70;;
78549;SDS011;68091;52.130;5.570;2023-03-31T16:26:24;5.65;;;1.70;;
78549;SDS011;68091;52.130;5.570;2023-03-31T16:28:54;5.32;;;1.20;;
78549;SDS011;68091;52.130;5.570;2023-03-31T16:34:30;5.40;;;1.33;;
78549;SDS011;68091;52.130;5.570;2023-03-31T16:36:59;6.55;;;2.10;;
78549;SDS011;68091;52.130;5.570;2023-03-31T16:39:32;6.03;;;1.75;;
78549;SDS011;68091;52.130;5.570;2023-03-31T16:41:58;6.50;;;2.45;;
78549;SDS011;68091;52.130;5.570;2023-03-31T16:44:44;4.68;;;2.03;;
78549;SDS011;68091;52.130;5.570;2023-03-31T16:47:10;5.55;;;1.95;;
78549;SDS011;68091;52.130;5.570;2023-03-31T16:49:40;7.10;;;1.88;;
78549;SDS011;68091;52.130;5.570;2023-03-31T16:52:06;4.68;;;1.90;;
78549;SDS011;68091;52.130;5.570;2023-03-31T16:54:33;5.97;;;2.25;;
78549;SDS011;68091;52.130;5.570;2023-03-31T16:57:02;5.80;;;2.10;;
78549;SDS011;68091;52.130;5.570;2023-03-31T16:59:28;4.32;;;2.50;;
78549;SDS011;68091;52.130;5.570;2023-03-31T17:01:54;4.72;;;2.47;;
78549;SDS011;68091;52.130;5.570;2023-03-31T17:04:19;7.05;;;2.45;;
78549;SDS011;68091;52.130;5.570;2023-03-31T17:06:46;4.53;;;2.53;;
78549;SDS011;68091;52.130;5.570;2023-03-31T17:09:12;5.90;;;2.90;;
78549;SDS011;68091;52.130;5.570;2023-03-31T17:11:38;5.20;;;2.65;;
78549;SDS011;68091;52.130;5.570;2023-03-31T17:14:04;7.18;;;2.95;;
78549;SDS011;68091;52.130;5.570;2023-03-31T17:16:30;5.28;;;3.30;;
78549;SDS011;68091;52.130;5.570;2023-03-31T17:18:56;5.88;;;2.70;;
78549;SDS011;68091;52.130;5.570;2023-03-31T17:21:22;4.45;;;2.70;;
78549;SDS011;68091;52.130;5.570;2023-03-31T17:23:48;5.75;;;2.88;;
78549;SDS011;68091;52.130;5.570;2023-03-31T17:26:14;6.75;;;3.50;;
78549;SDS011;68091;52.130;5.570;2023-03-31T17:28:40;5.28;;;3.35;;
78549;SDS011;68091;52.130;5.570;2023-03-31T17:31:10;4.90;;;3.17;;
78549;SDS011;68091;52.130;5.570;2023-03-31T17:33:37;7.47;;;3.50;;
78549;SDS011;68091;52.130;5.570;2023-03-31T17:36:02;5.80;;;3.28;;
78549;SDS011;68091;52.130;5.570;2023-03-31T17:38:28;6.72;;;3.22;;
78549;SDS011;68091;52.130;5.570;2023-03-31T17:40:55;5.95;;;3.20;;
78549;SDS011;68091;52.130;5.570;2023-03-31T17:43:27;6.40;;;2.70;;
78549;SDS011;68091;52.130;5.570;2023-03-31T17:46:03;7.30;;;3.20;;
78549;SDS011;68091;52.130;5.570;2023-03-31T17:48:32;5.50;;;2.95;;
78549;SDS011;68091;52.130;5.570;2023-03-31T17:51:02;5.47;;;3.35;;